Time;durP1;ratioP1;P1;durP2;ratioP2;P2;SDS_P1;SDS_P2;PMS_P1;PMS_P2;Temp;Humidity;BMP_temperature;BMP_pressure;BME280_temperature;BME280_humidity;BME280_pressure;Samples;Min_cycle;Max_cycle;Signal;HPM_P1;HPM_P2
2022/08/24 00:00:00;;;;;;;11.10;6.40;;;;;;;22.17;49.09;99822.00;109410;1274;22471;-58
2022/08/24 00:02:27;;;;;;;12.50;6.50;;;;;;;22.13;48.99;99826.73;109364;1274;139617;-58
2022/08/24 00:04:54;;;;;;;11.10;7.10;;;;;;;22.10;48.97;99830.11;109392;1274;22440;-58
2022/08/24 00:07:22;;;;;;;9.00;6.40;;;;;;;22.05;48.96;99833.90;109473;1273;22528;-58
2022/08/24 00:09:53;;;;;;;8.80;6.30;;;;;;;22.01;49.17;99839.40;109456;1274;22436;-58
2022/08/24 00:12:20;;;;;;;11.90;6.20;;;;;;;21.97;49.16;99838.60;109369;1274;23287;-58
2022/08/24 00:14:47;;;;;;;10.10;6.20;;;;;;;21.93;49.19;99839.46;109380;1274;137482;-58
2022/08/24 00:17:15;;;;;;;10.40;6.60;;;;;;;21.89;49.21;99838.48;105597;1277;24158;-57
2022/08/24 00:19:43;;;;;;;10.80;6.50;;;;;;;21.85;49.32;99839.98;109366;1274;138399;-58
2022/08/24 00:22:09;;;;;;;12.90;5.80;;;;;;;21.81;49.39;99841.54;109453;1274;22417;-58
2022/08/24 00:24:36;;;;;;;10.20;6.10;;;;;;;21.77;49.37;99842.30;109492;1274;23181;-58
2022/08/24 00:27:05;;;;;;;15.10;5.90;;;;;;;21.73;49.45;99848.52;109348;1273;138468;-58
2022/08/24 00:29:32;;;;;;;9.70;5.50;;;;;;;21.68;49.54;99848.20;109502;1274;22554;-58
2022/08/24 00:31:59;;;;;;;11.50;7.10;;;;;;;21.64;49.57;99847.00;109364;1274;137865;-58
2022/08/24 00:34:26;;;;;;;9.20;6.40;;;;;;;21.61;49.50;99850.48;109443;1274;22517;-58
2022/08/24 00:36:53;;;;;;;7.40;5.20;;;;;;;21.58;49.57;99854.13;109416;1272;23159;-58
2022/08/24 00:39:20;;;;;;;12.90;6.20;;;;;;;21.54;49.46;99854.84;109368;1274;139623;-58
2022/08/24 00:41:48;;;;;;;10.70;5.90;;;;;;;21.51;49.49;99856.88;109505;1274;22439;-58
2022/08/24 00:44:15;;;;;;;14.80;6.10;;;;;;;21.48;49.49;99854.22;109345;1274;138681;-58
2022/08/24 00:46:55;;;;;;;11.70;6.80;;;;;;;21.44;49.35;99856.09;109437;1274;22438;-58
2022/08/24 00:49:28;;;;;;;10.00;6.20;;;;;;;21.41;49.41;99853.02;109326;1274;22685;-58
2022/08/24 00:52:03;;;;;;;10.70;6.10;;;;;;;21.36;49.37;99851.98;109368;1274;22491;-58
2022/08/24 00:54:32;;;;;;;11.00;5.90;;;;;;;21.34;49.46;99853.63;109384;1274;22504;-58
2022/08/24 00:57:01;;;;;;;14.60;5.80;;;;;;;21.31;49.38;99851.81;106035;1277;138467;-57
2022/08/24 00:59:31;;;;;;;10.70;6.60;;;;;;;21.27;49.41;99848.92;109477;1274;23229;-58
2022/08/24 01:01:59;;;;;;;10.80;5.60;;;;;;;21.25;49.35;99852.42;109335;1274;138207;-57
2022/08/24 01:04:44;;;;;;;10.30;5.70;;;;;;;21.21;49.37;99851.54;109150;1274;23196;-57
2022/08/24 01:07:11;;;;;;;8.10;5.70;;;;;;;21.17;49.29;99849.68;109364;1274;22220;-57
2022/08/24 01:09:39;;;;;;;7.90;5.40;;;;;;;21.15;49.31;99850.24;109294;1274;138162;-57
2022/08/24 01:12:06;;;;;;;7.90;5.50;;;;;;;21.13;49.43;99851.73;109321;1274;22613;-57
2022/08/24 01:14:33;;;;;;;9.10;5.60;;;;;;;21.09;49.38;99854.88;109313;1274;138871;-57
2022/08/24 01:19:47;;;;;;;11.60;5.20;;;;;;;21.04;49.39;99855.83;109205;1274;139093;-58
2022/08/24 01:22:33;;;;;;;10.00;5.70;;;;;;;21.01;49.36;99858.67;109335;1274;23174;-58
2022/08/24 01:25:00;;;;;;;11.80;5.40;;;;;;;20.98;49.20;99860.31;109446;1274;22463;-58
2022/08/24 01:27:27;;;;;;;10.70;6.30;;;;;;;20.96;49.31;99861.86;105161;1274;138387;-57
2022/08/24 01:29:54;;;;;;;11.70;6.20;;;;;;;20.93;49.30;99860.53;105055;1275;22627;-57
2022/08/24 01:32:22;;;;;;;9.60;5.60;;;;;;;20.90;49.38;99860.58;104948;1274;139293;-57
2022/08/24 01:34:49;;;;;;;12.30;5.50;;;;;;;20.87;49.45;99867.42;109492;1274;23081;-58
2022/08/24 01:37:16;;;;;;;10.70;6.10;;;;;;;20.83;49.43;99866.35;109487;1274;23527;-58
2022/08/24 01:39:43;;;;;;;10.40;5.80;;;;;;;20.79;49.41;99871.48;109335;1274;138544;-57
2022/08/24 01:42:10;;;;;;;9.80;5.70;;;;;;;20.77;49.37;99871.67;109468;1274;22888;-58
2022/08/24 01:44:41;;;;;;;7.40;5.50;;;;;;;20.74;49.44;99871.86;109378;1274;137938;-58
2022/08/24 01:47:09;;;;;;;7.20;5.70;;;;;;;20.72;49.40;99875.46;109428;1274;23215;-58
2022/08/24 01:49:42;;;;;;;12.90;5.90;;;;;;;20.70;49.42;99875.34;109267;1274;138604;-58
2022/08/24 01:52:11;;;;;;;12.20;5.90;;;;;;;20.67;49.50;99878.77;109387;1273;22311;-58
2022/08/24 01:54:39;;;;;;;7.80;5.10;;;;;;;20.65;49.62;99874.67;109421;1274;22501;-58
2022/08/24 01:57:09;;;;;;;11.00;5.70;;;;;;;20.62;49.54;99877.06;109398;1274;139326;-58
2022/08/24 01:59:40;;;;;;;13.20;5.70;;;;;;;20.60;49.60;99878.05;109308;1274;22413;-58
2022/08/24 02:02:15;;;;;;;8.10;6.10;;;;;;;20.56;49.69;99877.73;109390;1274;138317;-58
2022/08/24 02:04:42;;;;;;;9.40;6.40;;;;;;;20.53;49.65;99880.05;109319;1274;22644;-58
2022/08/24 02:07:11;;;;;;;9.60;6.10;;;;;;;20.50;49.74;99885.42;109422;1274;22410;-58
2022/08/24 02:09:38;;;;;;;9.90;5.60;;;;;;;20.46;49.72;99883.38;109238;1274;138429;-58
2022/08/24 02:12:05;;;;;;;12.20;6.60;;;;;;;20.44;49.82;99882.16;109266;1274;23658;-58
2022/08/24 02:14:33;;;;;;;9.90;6.70;;;;;;;20.42;49.83;99883.75;109354;1274;138522;-58
2022/08/24 02:17:03;;;;;;;7.00;5.70;;;;;;;20.39;49.81;99881.77;109363;1274;22553;-58
2022/08/24 02:19:30;;;;;;;8.30;5.90;;;;;;;20.37;49.67;99882.91;109215;1274;137900;-58
2022/08/24 02:21:59;;;;;;;8.40;5.70;;;;;;;20.35;49.80;99881.05;109485;1274;22467;-57
2022/08/24 02:24:27;;;;;;;11.50;6.00;;;;;;;20.32;49.84;99877.83;109461;1274;22472;-58
2022/08/24 02:26:54;;;;;;;10.40;5.80;;;;;;;20.31;49.73;99885.44;109202;1274;139164;-67
2022/08/24 02:29:21;;;;;;;10.00;6.10;;;;;;;20.29;49.65;99883.82;109438;1274;23213;-68
2022/08/24 02:31:48;;;;;;;8.00;6.00;;;;;;;20.28;49.71;99878.86;109228;1274;137884;-67
2022/08/24 02:34:15;;;;;;;9.20;6.00;;;;;;;20.26;49.56;99883.59;109476;1274;23130;-67
2022/08/24 02:36:42;;;;;;;13.30;5.60;;;;;;;20.25;49.64;99882.19;109381;1274;22421;-68
2022/08/24 02:39:09;;;;;;;7.30;5.40;;;;;;;20.24;49.55;99881.66;109314;1274;138718;-67
2022/08/24 02:41:36;;;;;;;9.80;6.20;;;;;;;20.22;49.64;99885.35;109419;1274;22444;-67
2022/08/24 02:44:03;;;;;;;9.20;6.30;;;;;;;20.20;49.57;99883.02;109200;1274;138442;-67
2022/08/24 02:46:31;;;;;;;9.90;6.20;;;;;;;20.18;49.74;99886.80;109396;1274;22551;-67
2022/08/24 02:48:58;;;;;;;12.60;5.40;;;;;;;20.16;49.69;99884.86;109194;1274;22451;-68
2022/08/24 02:51:40;;;;;;;9.10;5.50;;;;;;;20.13;49.86;99887.34;109214;1274;138548;-67
2022/08/24 02:54:16;;;;;;;7.30;5.70;;;;;;;20.10;49.67;99887.01;109184;1275;22486;-67
2022/08/24 02:56:44;;;;;;;9.80;5.80;;;;;;;20.08;49.72;99887.21;109221;1274;138725;-66
2022/08/24 02:59:11;;;;;;;11.00;5.90;;;;;;;20.06;49.70;99889.92;109425;1274;23289;-66
2022/08/24 03:01:38;;;;;;;11.20;5.30;;;;;;;20.03;49.70;99889.34;109181;1274;137679;-66
2022/08/24 03:04:05;;;;;;;8.90;6.10;;;;;;;20.01;49.79;99892.83;109199;1274;22444;-68
2022/08/24 03:06:32;;;;;;;11.70;5.60;;;;;;;19.99;49.87;99894.36;109480;1273;22473;-68
2022/08/24 03:08:59;;;;;;;9.30;5.70;;;;;;;19.97;49.86;99897.33;109227;1274;139398;-67
2022/08/24 03:11:26;;;;;;;7.50;5.00;;;;;;;19.95;49.96;99898.75;109448;1274;23783;-67
2022/08/24 03:13:56;;;;;;;13.30;5.80;;;;;;;19.93;50.11;99895.43;109141;1274;138853;-66
2022/08/24 03:16:23;;;;;;;9.90;5.50;;;;;;;19.91;50.13;99898.52;109312;1274;23202;-67
2022/08/24 03:18:50;;;;;;;13.60;6.00;;;;;;;19.89;50.25;99897.30;109376;1274;22655;-67
2022/08/24 03:21:17;;;;;;;9.40;5.40;;;;;;;19.87;50.20;99901.83;109256;1274;138388;-68
2022/08/24 03:23:45;;;;;;;9.20;5.40;;;;;;;19.85;50.30;99899.66;109345;1274;22491;-68
2022/08/24 03:26:12;;;;;;;11.30;5.90;;;;;;;19.83;50.27;99900.58;109298;1274;140652;-67
2022/08/24 03:28:39;;;;;;;11.60;5.10;;;;;;;19.81;50.13;99901.56;109246;1274;22575;-67
2022/08/24 03:31:06;;;;;;;9.30;5.90;;;;;;;19.79;50.01;99894.96;109314;1274;22463;-67
2022/08/24 03:33:33;;;;;;;14.40;5.40;;;;;;;19.77;49.90;99897.42;109220;1274;137606;-67
2022/08/24 03:36:00;;;;;;;6.60;5.00;;;;;;;19.77;49.89;99897.42;107844;1274;22556;-67
2022/08/24 03:38:27;;;;;;;13.60;5.90;;;;;;;19.76;49.97;99901.64;104918;1275;138353;-67
2022/08/24 03:40:54;;;;;;;7.90;4.80;;;;;;;19.77;49.94;99904.58;104962;1275;22872;-67
2022/08/24 03:46:07;;;;;;;7.00;5.50;;;;;;;19.77;49.61;99906.95;105144;1275;22863;-66
2022/08/24 03:48:35;;;;;;;7.50;5.10;;;;;;;19.79;49.40;99910.06;109446;1274;22463;-66
2022/08/24 03:51:02;;;;;;;14.20;5.60;;;;;;;19.81;49.49;99907.88;109275;1274;137564;-66
2022/08/24 03:53:30;;;;;;;7.60;4.90;;;;;;;19.83;49.55;99909.10;109189;1274;23077;-66
2022/08/24 03:55:57;;;;;;;13.00;5.20;;;;;;;19.85;49.38;99912.45;109282;1274;139668;-66
2022/08/24 03:58:26;;;;;;;8.30;4.80;;;;;;;19.87;49.29;99916.64;109453;1273;22300;-66
2022/08/24 04:00:54;;;;;;;8.70;4.80;;;;;;;19.89;49.21;99916.98;109325;1274;22501;-66
2022/08/24 04:03:22;;;;;;;7.90;4.60;;;;;;;19.93;49.24;99919.99;109232;1274;138462;-66
2022/08/24 04:05:52;;;;;;;8.80;4.70;;;;;;;19.95;49.08;99916.90;109311;1274;23147;-66
2022/08/24 04:08:20;;;;;;;8.10;4.60;;;;;;;19.98;48.98;99916.45;109216;1274;138266;-66
2022/08/24 04:10:47;;;;;;;7.70;4.30;;;;;;;20.01;48.85;99916.66;109306;1274;22628;-67
2022/08/24 04:13:16;;;;;;;9.30;5.10;;;;;;;20.05;48.97;99915.08;109450;1274;22422;-67
2022/08/24 04:15:43;;;;;;;11.90;4.60;;;;;;;20.09;48.54;99915.48;109309;1274;138075;-67
2022/08/24 04:18:09;;;;;;;11.90;4.80;;;;;;;20.14;48.33;99912.28;109383;1274;22631;-67
2022/08/24 04:20:40;;;;;;;11.40;4.30;;;;;;;20.18;48.16;99910.58;109342;1274;139245;-67
2022/08/24 04:23:08;;;;;;;11.00;4.50;;;;;;;20.23;48.31;99910.78;109287;1274;22773;-68
2022/08/24 04:25:43;;;;;;;6.90;4.40;;;;;;;20.28;47.74;99911.16;109247;1274;139522;-68
2022/08/24 04:28:10;;;;;;;10.80;4.40;;;;;;;20.34;47.72;99912.91;109415;1274;22512;-67
2022/08/24 04:30:41;;;;;;;13.70;4.10;;;;;;;20.41;47.63;99912.77;109222;1274;22487;-67
2022/08/24 04:33:10;;;;;;;12.80;4.40;;;;;;;20.50;47.56;99919.64;109226;1274;137639;-67
2022/08/24 04:35:38;;;;;;;6.00;4.50;;;;;;;20.61;47.62;99913.55;109304;1274;23146;-66
2022/08/24 04:38:06;;;;;;;7.70;4.80;;;;;;;20.73;47.09;99914.46;109244;1274;138677;-67
2022/08/24 04:40:33;;;;;;;9.60;4.10;;;;;;;20.87;46.82;99915.63;109430;1274;23067;-67
2022/08/24 04:43:02;;;;;;;13.80;4.90;;;;;;;21.01;46.33;99915.58;109311;1274;22458;-67
2022/08/24 04:45:29;;;;;;;11.70;4.40;;;;;;;21.15;45.80;99912.10;109228;1274;140767;-67
2022/08/24 04:47:56;;;;;;;5.90;4.00;;;;;;;21.28;45.76;99910.61;109240;1274;22437;-67
2022/08/24 04:50:24;;;;;;;11.30;4.50;;;;;;;21.40;45.50;99909.92;109232;1274;138594;-67
2022/08/24 04:52:51;;;;;;;9.90;4.30;;;;;;;21.52;45.27;99904.88;109437;1274;22608;-68
2022/08/24 04:55:18;;;;;;;12.80;4.10;;;;;;;21.66;45.28;99907.47;109390;1274;23076;-68
2022/08/24 04:57:45;;;;;;;8.40;4.60;;;;;;;21.84;44.92;99909.14;109210;1274;138372;-67
2022/08/24 05:00:12;;;;;;;11.90;4.50;;;;;;;22.03;44.50;99904.48;109327;1276;23291;-67
2022/08/24 05:02:41;;;;;;;12.70;4.20;;;;;;;22.20;44.02;99902.68;109298;1274;138641;-67
2022/08/24 05:05:11;;;;;;;5.70;3.70;;;;;;;22.36;43.71;99902.79;109378;1274;22461;-66
2022/08/24 05:07:38;;;;;;;7.10;4.20;;;;;;;22.50;43.24;99903.98;104919;1277;139678;-66
2022/08/24 05:10:05;;;;;;;10.90;4.70;;;;;;;22.62;43.08;99897.70;104909;1275;25264;-67
2022/08/24 05:12:34;;;;;;;11.00;4.80;;;;;;;22.75;42.78;99898.13;109388;1274;23261;-67
2022/08/24 05:15:02;;;;;;;7.80;4.00;;;;;;;22.86;42.59;99897.13;109165;1274;137750;-67
2022/08/24 05:17:33;;;;;;;8.10;4.00;;;;;;;22.98;41.79;99898.34;109347;1274;22460;-67
2022/08/24 05:20:00;;;;;;;11.20;4.90;;;;;;;23.05;41.25;99902.71;109195;1274;141093;-66
2022/08/24 05:22:28;;;;;;;11.20;4.00;;;;;;;23.13;41.55;99900.25;109319;1274;22437;-67
2022/08/24 05:24:56;;;;;;;6.60;4.20;;;;;;;23.24;41.27;99902.09;109192;1274;22452;-67
2022/08/24 05:27:23;;;;;;;14.00;4.10;;;;;;;23.34;40.52;99902.21;109197;1274;137653;-67
2022/08/24 05:29:54;;;;;;;13.20;3.70;;;;;;;23.42;40.41;99897.13;109262;1274;22470;-67
2022/08/24 05:32:21;;;;;;;10.90;4.10;;;;;;;23.52;40.37;99894.36;109173;1274;137951;-67
2022/08/24 05:34:48;;;;;;;9.40;4.70;;;;;;;23.63;39.78;99894.61;109290;1274;23604;-67
2022/08/24 05:37:15;;;;;;;8.00;4.10;;;;;;;23.74;39.29;99890.25;109444;1274;23471;-67
2022/08/24 05:40:18;;;;;;;9.10;4.40;;;;;;;23.80;39.06;99888.84;107184;1274;22598;-67
2022/08/24 05:43:06;;;;;;;7.80;4.60;;;;;;;23.87;39.19;99892.79;109468;1273;22505;-67
2022/08/24 05:45:33;;;;;;;11.90;5.00;;;;;;;23.96;39.37;99889.31;109309;1274;137948;-67
2022/08/24 05:47:59;;;;;;;11.00;4.40;;;;;;;24.07;39.37;99891.80;109269;1274;25496;-67
2022/08/24 05:50:53;;;;;;;9.70;4.50;;;;;;;24.17;38.94;99891.33;109220;1274;137782;-68
2022/08/24 05:53:21;;;;;;;11.30;4.60;;;;;;;24.21;38.05;99895.08;109171;1274;22495;-68
2022/08/24 05:55:48;;;;;;;12.60;4.80;;;;;;;24.15;37.83;99892.60;109194;1274;139523;-67
2022/08/24 05:58:15;;;;;;;10.00;4.40;;;;;;;24.10;38.45;99900.19;109303;1274;23428;-67
2022/08/24 06:00:58;;;;;;;6.20;4.10;;;;;;;24.07;38.56;99902.25;109243;1274;22523;-67
2022/08/24 06:03:25;;;;;;;12.20;5.10;;;;;;;24.05;38.82;99903.80;109169;1274;138263;-67
2022/08/24 06:05:53;;;;;;;11.50;4.00;;;;;;;24.01;38.52;99905.80;109365;1274;23545;-67
2022/08/24 06:08:20;;;;;;;10.70;4.50;;;;;;;23.94;38.96;99908.02;109236;1274;138601;-67
2022/08/24 06:10:48;;;;;;;11.20;5.30;;;;;;;23.91;38.57;99910.19;109425;1272;22461;-67
2022/08/24 06:13:15;;;;;;;8.30;4.30;;;;;;;23.84;39.41;99909.30;109362;1274;22445;-68
2022/08/24 06:15:42;;;;;;;7.90;4.40;;;;;;;23.82;39.66;99909.89;109140;1274;138127;-67
2022/08/24 06:18:25;;;;;;;10.50;4.80;;;;;;;23.82;39.97;99916.02;109369;1274;23523;-67
2022/08/24 06:20:53;;;;;;;9.70;4.00;;;;;;;23.83;39.80;99916.63;109213;1274;139644;-67
2022/08/24 06:23:23;;;;;;;8.70;4.20;;;;;;;23.83;39.35;99920.14;109489;1274;22468;-67
2022/08/24 06:28:48;;;;;;;8.40;4.40;;;;;;;23.81;39.82;99925.52;109238;1274;22256;-67
2022/08/24 06:31:15;;;;;;;8.40;4.20;;;;;;;23.80;39.81;99925.10;109317;1274;23543;-67
2022/08/24 06:33:42;;;;;;;8.00;4.50;;;;;;;23.78;39.89;99928.86;109204;1274;137790;-67
2022/08/24 06:36:09;;;;;;;7.10;3.70;;;;;;;23.78;39.74;99927.72;109411;1274;22458;-67
2022/08/24 06:38:36;;;;;;;7.50;3.90;;;;;;;23.78;40.09;99930.98;109353;1274;137959;-67
2022/08/24 06:41:03;;;;;;;19.40;4.80;;;;;;;23.80;40.22;99928.36;109301;1274;22429;-67
2022/08/24 06:43:33;;;;;;;7.60;4.40;;;;;;;23.83;40.13;99935.52;109199;1274;138680;-67
2022/08/24 06:46:08;;;;;;;10.50;4.60;;;;;;;23.84;40.67;99936.08;107608;1274;23004;-67
2022/08/24 06:48:38;;;;;;;12.50;4.80;;;;;;;23.88;40.78;99934.79;104718;1274;22706;-67
2022/08/24 06:51:10;;;;;;;11.40;4.40;;;;;;;23.89;40.51;99938.59;104844;1272;138498;-67
2022/08/24 06:53:37;;;;;;;13.40;4.50;;;;;;;23.88;40.80;99940.05;109308;1273;22268;-67
2022/08/24 06:56:05;;;;;;;7.40;4.30;;;;;;;23.89;41.23;99939.70;109302;1274;138002;-67
2022/08/24 06:58:32;;;;;;;10.50;4.20;;;;;;;23.92;41.99;99941.88;109296;1274;22387;-67
2022/08/24 07:01:23;;;;;;;11.10;5.20;;;;;;;23.97;41.70;99943.33;109307;1274;23343;-67
2022/08/24 07:03:50;;;;;;;11.30;5.10;;;;;;;24.00;41.33;99943.06;109320;1273;22474;-67
2022/08/24 07:06:37;;;;;;;;;;;;;;;23.97;41.40;99946.87;109240;1273;22487;-68
2022/08/24 07:09:04;;;;;;;11.90;5.00;;;;;;;23.97;41.91;99947.10;109213;1274;126067;-68
2022/08/24 07:11:33;;;;;;;10.70;4.50;;;;;;;23.99;41.43;99949.39;109240;1274;22476;-69
2022/08/24 07:14:00;;;;;;;11.00;4.90;;;;;;;24.00;41.86;99946.82;109213;1274;138776;-69
2022/08/24 07:16:27;;;;;;;7.70;4.60;;;;;;;24.05;41.62;99946.29;109413;1274;22451;-68
2022/08/24 07:18:58;;;;;;;6.50;4.10;;;;;;;24.07;41.55;99943.52;109204;1274;22463;-68
2022/08/24 07:21:25;;;;;;;5.50;3.90;;;;;;;24.10;41.63;99949.98;109175;1274;139133;-68
2022/08/24 07:23:56;;;;;;;11.70;4.40;;;;;;;24.13;41.25;99947.95;109427;1274;23550;-68
2022/08/24 07:26:24;;;;;;;9.20;4.10;;;;;;;24.16;41.63;99949.34;109188;1274;137723;-69
2022/08/24 07:29:05;;;;;;;9.00;4.40;;;;;;;24.20;41.54;99949.36;109347;1274;23061;-65
2022/08/24 07:31:38;;;;;;;13.40;4.60;;;;;;;24.28;41.97;99951.29;109048;1274;138514;-64
2022/08/24 07:34:10;;;;;;;10.50;4.80;;;;;;;24.36;42.31;99946.19;109292;1274;22298;-65
2022/08/24 07:36:37;;;;;;;7.70;5.10;;;;;;;24.45;41.93;99953.39;109401;1274;23277;-65
2022/08/24 07:39:10;;;;;;;12.40;5.80;;;;;;;24.53;41.72;99953.81;109188;1274;137407;-65
2022/08/24 07:41:38;;;;;;;8.90;4.90;;;;;;;24.58;41.37;99959.02;109295;1274;22386;-65
2022/08/24 07:44:25;;;;;;;10.90;4.80;;;;;;;24.63;41.73;99959.38;109074;1274;138224;-65
2022/08/24 07:46:53;;;;;;;23.10;6.00;;;;;;;24.69;41.57;99961.60;109288;1274;22475;-65
2022/08/24 07:49:20;;;;;;;15.10;5.60;;;;;;;24.77;41.14;99969.15;109427;1274;22471;-64
2022/08/24 07:52:03;;;;;;;12.30;4.70;;;;;;;24.86;40.90;99960.80;109315;1274;22413;-65
2022/08/24 07:54:30;;;;;;;33.20;6.20;;;;;;;24.93;40.56;99952.30;109323;1274;22455;-65
2022/08/24 07:56:58;;;;;;;14.10;5.00;;;;;;;25.00;41.11;99950.91;109199;1274;138480;-65
2022/08/24 07:59:25;;;;;;;24.50;5.80;;;;;;;25.08;40.87;99952.94;109398;1274;22497;-64
2022/08/24 08:01:52;;;;;;;13.60;6.00;;;;;;;25.17;39.51;99948.23;109230;1274;139090;-65
2022/08/24 08:04:20;;;;;;;21.60;6.70;;;;;;;25.25;39.45;99947.16;109418;1274;23144;-65
2022/08/24 08:06:48;;;;;;;20.40;5.70;;;;;;;25.32;39.88;99952.52;109324;1274;22454;-64
2022/08/24 08:09:14;;;;;;;20.70;5.40;;;;;;;25.40;39.50;99955.16;109255;1274;138477;-65
2022/08/24 08:11:41;;;;;;;22.80;5.90;;;;;;;25.47;39.54;99956.61;109264;1274;23104;-65
2022/08/24 08:14:08;;;;;;;14.90;5.50;;;;;;;25.54;39.24;99954.93;109301;1274;139118;-65
2022/08/24 08:16:37;;;;;;;20.30;5.80;;;;;;;25.62;39.35;99957.64;109368;1274;22425;-65
2022/08/24 08:19:04;;;;;;;22.50;5.70;;;;;;;25.71;38.93;99961.36;109350;1273;22588;-65
2022/08/24 08:24:32;;;;;;;23.20;5.80;;;;;;;25.92;38.50;99957.48;109338;1274;22447;-65
2022/08/24 08:26:59;;;;;;;20.90;5.40;;;;;;;26.00;38.58;99955.19;105938;1274;139119;-66
2022/08/24 08:29:32;;;;;;;18.70;5.00;;;;;;;26.08;38.74;99962.41;105021;1274;22568;-66
2022/08/24 08:32:00;;;;;;;20.30;6.20;;;;;;;26.16;38.46;99963.04;109355;1273;137739;-65
2022/08/24 08:34:28;;;;;;;18.30;6.10;;;;;;;26.24;37.68;99960.09;109356;1274;22936;-65
2022/08/24 08:36:55;;;;;;;22.40;6.30;;;;;;;26.31;37.84;99960.50;109320;1274;23073;-65
2022/08/24 08:39:22;;;;;;;18.00;5.90;;;;;;;26.37;37.55;99963.09;109241;1274;138007;-65
2022/08/24 08:41:59;;;;;;;14.70;5.20;;;;;;;26.42;37.78;99961.31;109327;1274;23436;-64
2022/08/24 08:47:53;;;;;;;17.20;5.70;;;;;;;26.61;37.38;99960.05;101739;1309;545681;-67
2022/08/24 08:50:29;;;;;;;20.70;5.00;;;;;;;26.68;36.50;99961.37;103586;1289;137937;-65
2022/08/24 08:53:44;;;;;;;25.40;5.80;;;;;;;26.75;36.29;99959.41;107646;1289;22434;-66
2022/08/24 08:56:36;;;;;;;22.80;5.70;;;;;;;26.80;36.15;99957.02;105297;1295;137115;-65
2022/08/24 08:59:21;;;;;;;14.90;4.70;;;;;;;26.87;35.08;99959.76;107169;1295;22560;-66
2022/08/24 09:02:06;;;;;;;22.00;5.10;;;;;;;26.96;34.81;99955.50;106362;1293;1262786;-67
2022/08/24 09:04:55;;;;;;;18.00;5.00;;;;;;;27.03;34.62;99955.29;107398;1293;22486;-66
2022/08/24 09:07:45;;;;;;;15.70;4.40;;;;;;;27.08;34.50;99954.15;107244;1293;22660;-66
2022/08/24 09:10:40;;;;;;;21.80;4.80;;;;;;;27.14;35.05;99953.67;107140;1294;22532;-66
2022/08/24 09:13:16;;;;;;;19.80;4.70;;;;;;;27.23;34.78;99950.88;107316;1293;23047;-66
2022/08/24 09:15:53;;;;;;;18.20;4.90;;;;;;;27.31;34.25;99951.00;107211;1293;137740;-66
2022/08/24 09:18:40;;;;;;;16.40;5.00;;;;;;;27.39;33.73;99951.55;107308;1292;22474;-66
2022/08/24 09:21:45;;;;;;;16.50;5.00;;;;;;;27.48;34.44;99952.42;107157;1292;137862;-66
2022/08/24 09:24:31;;;;;;;10.40;4.10;;;;;;;27.60;34.16;99951.13;107204;1294;22471;-66
2022/08/24 09:27:06;;;;;;;15.60;4.00;;;;;;;27.70;33.74;99948.20;107343;1292;137642;-66
2022/08/24 09:30:02;;;;;;;11.70;4.40;;;;;;;27.78;33.98;99948.80;107461;1292;22500;-66
2022/08/24 09:32:32;;;;;;;18.30;5.10;;;;;;;27.90;33.23;99950.74;107535;1285;139368;-66
2022/08/24 09:35:09;;;;;;;18.60;5.30;;;;;;;27.97;32.98;99946.79;108150;1286;22504;-67
2022/08/24 09:37:58;;;;;;;28.10;6.20;;;;;;;28.05;32.62;99949.75;108093;1286;137388;-66
2022/08/24 09:40:36;;;;;;;19.20;5.20;;;;;;;28.09;33.03;99943.88;108162;1285;22306;-65
2022/08/24 09:43:12;;;;;;;9.50;4.50;;;;;;;28.17;32.64;99945.30;108310;1285;22592;-65
2022/08/24 09:46:03;;;;;;;15.70;4.60;;;;;;;28.25;32.15;99944.49;107882;1287;137362;-65
2022/08/24 09:48:51;;;;;;;23.40;4.80;;;;;;;28.32;31.93;99943.19;108014;1286;23171;-66
2022/08/24 09:51:42;;;;;;;45.70;8.70;;;;;;;28.37;32.19;99941.47;107877;1287;137537;-65
2022/08/24 09:54:48;;;;;;;14.20;4.90;;;;;;;28.42;31.44;99940.38;107961;1287;22471;-66
2022/08/24 09:57:34;;;;;;;17.30;4.40;;;;;;;28.46;31.85;99940.54;107806;1287;138561;-65
2022/08/24 10:00:26;;;;;;;16.20;5.40;;;;;;;28.51;30.98;99940.73;107880;1287;22445;-66
2022/08/24 10:03:01;;;;;;;31.80;6.00;;;;;;;28.55;31.35;99942.34;107725;1287;138520;-65
2022/08/24 10:05:48;;;;;;;14.70;5.20;;;;;;;28.59;31.53;99943.14;107536;1287;22780;-65
2022/08/24 10:08:54;;;;;;;17.20;4.40;;;;;;;28.65;31.51;99943.99;103636;1288;139943;-65
2022/08/24 10:11:32;;;;;;;17.90;5.90;;;;;;;28.70;31.68;99940.50;103728;1287;24575;-65
2022/08/24 10:14:24;;;;;;;27.60;6.00;;;;;;;28.75;31.46;99940.02;103609;1287;138849;-64
2022/08/24 10:17:13;;;;;;;13.70;4.60;;;;;;;28.82;30.78;99936.70;103523;1288;22663;-64
2022/08/24 10:20:00;;;;;;;17.00;4.90;;;;;;;28.86;31.13;99938.67;103644;1289;137793;-65
2022/08/24 10:22:45;;;;;;;;;;;;;;;28.90;31.05;99936.83;103758;1287;23997;-65
2022/08/24 10:25:21;;;;;;;23.80;4.50;;;;;;;28.94;30.83;99939.08;103719;1288;22582;-64
2022/08/24 10:28:00;;;;;;;16.70;3.90;;;;;;;28.96;30.74;99935.27;103501;1288;137008;-64
2022/08/24 10:30:55;;;;;;;13.30;3.60;;;;;;;28.99;31.27;99938.61;103755;1288;22823;-65
2022/08/24 10:33:55;;;;;;;12.30;4.40;;;;;;;29.03;30.56;99941.07;103585;1286;137897;-64
2022/08/24 10:36:43;;;;;;;27.90;4.60;;;;;;;29.07;30.18;99945.66;103671;1288;25440;-64
2022/08/24 10:43:32;;;;;;;20.10;4.80;;;;;;;29.14;30.31;99940.73;103824;1288;22579;-64
2022/08/24 10:45:14;;;;;;;;;;;;;;;29.18;30.36;99946.25;103759;1288;138956;-64
2022/08/24 10:47:53;;;;;;;20.20;4.60;;;;;;;29.21;30.56;99941.19;103751;1288;23078;-64
2022/08/24 10:50:55;;;;;;;13.90;4.20;;;;;;;29.25;31.31;99942.63;103709;1288;138152;-64
2022/08/24 10:53:29;;;;;;;14.90;4.70;;;;;;;29.28;30.86;99936.82;103269;1293;22579;-64
2022/08/24 10:56:09;;;;;;;13.50;4.20;;;;;;;29.33;30.67;99937.33;107345;1290;137600;-64
2022/08/24 10:58:36;;;;;;;21.20;4.90;;;;;;;29.36;30.84;99933.69;107760;1290;23130;-65
2022/08/24 11:01:23;;;;;;;14.10;4.00;;;;;;;29.41;30.97;99933.48;107816;1290;22471;-65
2022/08/24 11:03:56;;;;;;;18.20;4.00;;;;;;;29.45;31.15;99930.73;107742;1290;23424;-64
2022/08/24 11:06:24;;;;;;;15.20;4.00;;;;;;;29.48;31.19;99921.88;107819;1290;22550;-65
2022/08/24 11:08:59;;;;;;;8.90;4.00;;;;;;;29.53;30.89;99926.64;107686;1290;138193;-64
2022/08/24 11:11:37;;;;;;;16.20;3.70;;;;;;;29.61;31.47;99924.25;107637;1290;22510;-64
2022/08/24 11:14:15;;;;;;;13.30;3.90;;;;;;;29.65;30.82;99924.42;107574;1290;138593;-64
2022/08/24 11:16:44;;;;;;;10.80;3.90;;;;;;;29.70;30.52;99920.49;107813;1290;23271;-64
2022/08/24 11:19:28;;;;;;;18.40;4.00;;;;;;;29.72;30.73;99920.36;107464;1290;22456;-64
2022/08/24 11:21:57;;;;;;;13.20;3.90;;;;;;;29.74;30.70;99919.58;107621;1290;22302;-65
2022/08/24 11:24:25;;;;;;;11.60;3.70;;;;;;;29.76;30.86;99916.16;107430;1291;22514;-65
2022/08/24 11:26:59;;;;;;;10.80;3.90;;;;;;;29.81;30.74;99917.85;107501;1291;139009;-65
2022/08/24 11:29:50;;;;;;;21.30;4.80;;;;;;;29.85;30.33;99914.56;107575;1290;23819;-65
2022/08/24 11:32:44;;;;;;;11.40;4.20;;;;;;;29.87;30.70;99913.84;108131;1286;137008;-65
2022/08/24 11:35:35;;;;;;;17.50;4.90;;;;;;;29.88;30.67;99908.48;108938;1279;22519;-65
2022/08/24 11:38:04;;;;;;;9.70;3.80;;;;;;;29.91;30.93;99910.30;108830;1279;138825;-65
2022/08/24 11:40:35;;;;;;;19.80;4.20;;;;;;;29.94;31.29;99904.80;108812;1280;23291;-65
2022/08/24 11:43:11;;;;;;;16.80;4.60;;;;;;;29.97;31.06;99905.36;108686;1281;22479;-65
2022/08/24 11:46:12;;;;;;;19.20;4.70;;;;;;;30.00;31.12;99901.56;108664;1279;137701;-64
2022/08/24 11:48:58;;;;;;;17.30;3.80;;;;;;;30.03;31.62;99901.52;108828;1279;22465;-68
2022/08/24 11:51:31;;;;;;;20.80;4.50;;;;;;;30.06;30.63;99896.02;108843;1279;137585;-63
2022/08/24 11:54:18;;;;;;;22.80;5.90;;;;;;;30.07;30.96;99896.44;108914;1278;22469;-65
2022/08/24 11:56:51;;;;;;;22.80;4.70;;;;;;;30.07;31.32;99895.55;109048;1276;138366;-64
2022/08/24 11:59:36;;;;;;;12.90;3.70;;;;;;;30.07;31.42;99894.66;109196;1274;23234;-63